Time;durP1;ratioP1;P1;durP2;ratioP2;P2;SDS_P1;SDS_P2;PMS_P1;PMS_P2;Temp;Humidity;BMP_temperature;BMP_pressure;BME280_temperature;BME280_humidity;BME280_pressure;Samples;Min_cycle;Max_cycle;Signal;HPM_P1;HPM_P2
2022/09/01 00:01:47;;;;;;;26.20;23.35;;;17.20;84.10;;;15.97;100.00;96268.13;4966815;28;20114;-75
2022/09/01 00:04:15;;;;;;;25.55;22.85;;;17.10;84.20;;;15.93;100.00;96273.88;4964454;28;20406;-73
2022/09/01 00:06:41;;;;;;;25.75;23.05;;;17.10;84.10;;;15.91;100.00;96273.28;4979504;28;20126;-74
2022/09/01 00:09:12;;;;;;;25.63;23.00;;;17.10;84.20;;;15.90;100.00;96273.50;4979687;28;20039;-73
2022/09/01 00:11:38;;;;;;;26.42;23.50;;;17.10;84.20;;;15.88;100.00;96271.06;4972141;28;20174;-74
2022/09/01 00:14:05;;;;;;;26.33;23.55;;;17.10;84.50;;;15.88;100.00;96276.38;4967642;28;20047;-74
2022/09/01 00:16:31;;;;;;;25.58;23.13;;;17.10;84.50;;;15.89;100.00;96272.69;4959808;28;20032;-74
2022/09/01 00:18:57;;;;;;;28.08;24.75;;;17.10;84.50;;;15.89;100.00;96272.69;4966124;28;20053;-74
2022/09/01 00:21:39;;;;;;;27.85;25.02;;;17.10;84.40;;;15.87;100.00;96269.44;4979362;28;20046;-74
2022/09/01 00:24:05;;;;;;;27.35;24.55;;;17.10;84.60;;;15.86;100.00;96270.47;4972361;28;20045;-74
2022/09/01 00:26:30;;;;;;;29.02;26.00;;;17.10;84.50;;;15.84;100.00;96261.91;4979074;28;20581;-74
2022/09/01 00:28:56;;;;;;;27.73;24.92;;;17.10;84.50;;;15.85;100.00;96263.53;4964981;28;20034;-74
2022/09/01 00:31:22;;;;;;;29.50;25.65;;;17.10;84.60;;;15.85;100.00;96270.69;4957216;28;20059;-74
2022/09/01 00:33:48;;;;;;;28.45;25.60;;;17.10;84.60;;;15.85;100.00;96268.03;4971897;28;20510;-74
2022/09/01 00:36:15;;;;;;;30.10;27.15;;;17.10;84.50;;;15.84;100.00;96264.56;4947142;28;20076;-74
2022/09/01 00:38:41;;;;;;;28.20;25.27;;;17.00;84.60;;;15.82;100.00;96261.31;4981795;28;20044;-73
2022/09/01 00:41:07;;;;;;;29.77;26.83;;;17.10;84.60;;;15.80;100.00;96263.38;4955212;28;20082;-74
2022/09/01 00:43:57;;;;;;;29.27;26.27;;;17.00;84.40;;;15.78;100.00;96260.13;4948371;28;20062;-75
2022/09/01 00:46:31;;;;;;;28.90;26.05;;;17.00;84.60;;;15.78;100.00;96270.72;4947839;28;20031;-75
2022/09/01 00:49:07;;;;;;;28.58;25.67;;;17.00;84.70;;;15.78;100.00;96260.13;4984233;28;20039;-74
2022/09/01 00:51:34;;;;;;;28.15;25.35;;;17.00;84.80;;;15.77;100.00;96263.81;4985753;28;20124;-76
2022/09/01 00:53:59;;;;;;;29.75;25.50;;;17.00;84.90;;;15.79;100.00;96260.94;4969099;28;20545;-74
2022/09/01 00:56:25;;;;;;;27.88;25.00;;;17.10;84.80;;;15.79;100.00;96256.44;4966817;28;20042;-74
2022/09/01 00:58:51;;;;;;;26.95;24.27;;;17.10;84.80;;;15.79;100.00;96264.41;4967014;28;20073;-73
2022/09/01 01:01:17;;;;;;;27.70;24.85;;;17.10;84.60;;;15.78;100.00;96254.00;4944329;28;20043;-74
2022/09/01 01:03:45;;;;;;;27.23;24.40;;;17.10;84.50;;;15.78;100.00;96249.50;4969620;28;20645;-73
2022/09/01 01:06:12;;;;;;;25.60;23.08;;;17.10;84.60;;;15.77;100.00;96247.06;4985492;28;20075;-73
2022/09/01 01:08:42;;;;;;;27.63;24.58;;;17.10;84.40;;;15.76;100.00;96251.56;4967760;28;20045;-74
2022/09/01 01:11:16;;;;;;;27.13;24.33;;;17.10;84.30;;;15.76;100.00;96258.72;4970796;28;20051;-73
2022/09/01 01:14:10;;;;;;;27.55;24.63;;;17.00;84.60;;;15.75;100.00;96249.13;4967646;28;20043;-73
2022/09/01 01:16:43;;;;;;;26.77;24.08;;;17.00;84.50;;;15.73;100.00;96254.66;4966879;28;20066;-74
2022/09/01 01:23:04;;;;;;;26.45;23.70;;;16.90;84.50;;;15.66;100.00;96245.97;4988620;28;20045;-74
2022/09/01 01:25:49;;;;;;;26.23;23.17;;;16.90;84.80;;;15.65;100.00;96244.34;4972863;28;20125;-74
2022/09/01 01:28:19;;;;;;;26.92;24.17;;;16.90;84.60;;;15.64;100.00;96248.00;4952465;28;20035;-73
2022/09/01 01:30:53;;;;;;;26.17;23.48;;;16.90;84.70;;;15.64;100.00;96237.41;5003360;28;20460;-74
2022/09/01 01:33:21;;;;;;;26.85;23.92;;;16.90;84.70;;;15.63;100.00;96240.28;4985980;28;20089;-73
2022/09/01 01:35:50;;;;;;;26.85;24.27;;;16.90;84.70;;;15.61;100.00;96236.00;4958880;28;20045;-74
2022/09/01 01:38:18;;;;;;;27.10;24.20;;;16.90;84.70;;;15.60;100.00;96236.19;4956605;28;20058;-74
2022/09/01 01:40:44;;;;;;;27.38;24.35;;;16.90;84.70;;;15.60;100.00;96236.19;4969067;28;20513;-74
2022/09/01 01:43:13;;;;;;;28.70;25.80;;;16.80;84.60;;;15.57;100.00;96240.06;4985081;28;20066;-73
2022/09/01 01:45:39;;;;;;;27.90;24.90;;;16.80;84.70;;;15.57;100.00;96232.13;4982177;28;20058;-73
2022/09/01 01:48:07;;;;;;;27.90;24.45;;;16.80;84.80;;;15.56;100.00;96230.50;4986721;28;20075;-74
2022/09/01 01:50:34;;;;;;;29.30;26.33;;;16.80;84.80;;;15.55;100.00;96234.16;4982400;28;20042;-73
2022/09/01 01:53:02;;;;;;;29.42;26.27;;;16.80;84.70;;;15.54;100.00;96234.38;4955665;28;21217;-74
2022/09/01 01:55:29;;;;;;;28.92;25.88;;;16.80;84.80;;;15.53;100.00;96243.38;4951566;28;20087;-74
2022/09/01 01:57:57;;;;;;;28.40;25.40;;;16.80;84.70;;;15.51;100.00;96232.16;4951865;28;20031;-73
2022/09/01 02:00:26;;;;;;;28.83;24.75;;;16.70;84.70;;;15.50;100.00;96236.66;4977496;28;20043;-74
2022/09/01 02:02:52;;;;;;;28.30;25.33;;;16.70;84.80;;;15.48;100.00;96235.25;4970048;28;20061;-74
2022/09/01 02:05:24;;;;;;;28.45;25.45;;;16.70;84.70;;;15.48;100.00;96237.91;4954871;28;20058;-73
2022/09/01 02:07:55;;;;;;;28.10;25.10;;;16.80;84.70;;;15.46;100.00;96234.66;4981272;28;20039;-73
2022/09/01 02:10:25;;;;;;;;;;;16.70;84.60;;;15.41;100.00;96237.97;4987840;28;20530;-73
2022/09/01 02:12:51;;;;;;;31.15;25.98;;;16.60;84.70;;;15.41;100.00;96234.50;4961079;28;19925;-73
2022/09/01 02:15:18;;;;;;;29.52;26.40;;;16.60;84.90;;;15.40;100.00;96235.53;4985035;28;20054;-73
2022/09/01 02:17:44;;;;;;;28.85;25.85;;;16.60;84.80;;;15.38;100.00;96235.72;4985210;28;20125;-74
2022/09/01 02:20:10;;;;;;;30.42;27.42;;;16.60;84.70;;;15.36;100.00;96229.03;4987749;28;20101;-73
2022/09/01 02:22:43;;;;;;;31.02;27.77;;;16.60;84.80;;;15.33;100.00;96231.06;4971669;28;20034;-73
2022/09/01 02:25:09;;;;;;;28.20;25.23;;;16.60;85.00;;;15.35;100.00;96232.69;4971926;28;20514;-73
2022/09/01 02:27:38;;;;;;;30.20;26.98;;;16.60;85.00;;;15.36;100.00;96229.03;4987343;28;20481;-73
2022/09/01 02:30:09;;;;;;;30.08;26.80;;;16.60;85.00;;;15.36;100.00;96229.03;5000739;28;20070;-74
2022/09/01 02:32:34;;;;;;;33.00;26.23;;;16.60;85.00;;;15.34;100.00;96223.94;5009288;28;20022;-73
2022/09/01 02:35:00;;;;;;;30.60;26.83;;;16.60;85.20;;;15.33;100.00;96225.78;4992777;28;20132;-73
2022/09/01 02:37:26;;;;;;;31.73;26.92;;;16.60;85.10;;;15.33;100.00;96230.25;4984830;28;20511;-74
2022/09/01 02:39:52;;;;;;;29.08;26.15;;;16.60;85.30;;;15.30;100.00;96228.84;4970207;28;20053;-74
2022/09/01 02:42:23;;;;;;;30.45;25.75;;;16.60;85.20;;;15.31;100.00;96227.03;4985048;28;20045;-74
2022/09/01 02:44:48;;;;;;;;;;;16.60;85.20;;;15.31;100.00;96227.84;4985045;28;20064;-74
2022/09/01 02:47:14;;;;;;;28.17;24.88;;;16.60;85.40;;;15.29;100.00;96229.06;4987711;28;20373;-73
2022/09/01 02:49:41;;;;;;;29.67;26.48;;;16.60;85.10;;;15.28;100.00;96228.25;4986886;28;20031;-73
2022/09/01 02:52:06;;;;;;;30.00;26.80;;;16.60;85.20;;;15.27;100.00;96228.47;4993730;28;20757;-73
2022/09/01 02:54:32;;;;;;;30.08;26.88;;;16.50;85.00;;;15.26;100.00;96225.03;4979527;28;20046;-74
2022/09/01 02:56:58;;;;;;;28.48;25.38;;;16.50;85.20;;;15.26;100.00;96227.69;4984846;28;20093;-74
2022/09/01 02:59:27;;;;;;;28.67;25.67;;;16.50;85.00;;;15.27;100.00;96224.00;4984251;28;20069;-73
2022/09/01 03:01:53;;;;;;;27.95;25.02;;;16.60;85.10;;;15.27;100.00;96221.34;4978583;28;20119;-74
2022/09/01 03:04:21;;;;;;;29.00;25.40;;;16.60;85.00;;;15.26;100.00;96225.03;4952133;28;20042;-72
2022/09/01 03:06:46;;;;;;;28.15;25.25;;;16.50;85.00;;;15.26;100.00;96225.03;4964004;28;20035;-72
2022/09/01 03:09:14;;;;;;;21.77;19.45;;;16.60;85.10;;;15.26;100.00;96226.84;4976300;28;20462;-73
2022/09/01 03:11:45;;;;;;;28.88;25.90;;;16.50;85.00;;;15.25;100.00;96225.25;4982657;28;20042;-72
2022/09/01 03:14:11;;;;;;;27.52;24.63;;;16.50;84.80;;;15.23;100.00;96225.47;5002620;28;20045;-73
2022/09/01 03:16:38;;;;;;;27.17;23.50;;;16.50;85.10;;;15.23;100.00;96225.47;4959749;28;20356;-74
2022/09/01 03:19:07;;;;;;;27.73;24.80;;;16.50;85.00;;;15.24;100.00;96226.25;4967633;28;20043;-73
2022/09/01 03:21:34;;;;;;;25.55;23.05;;;16.50;85.00;;;15.26;100.00;96225.03;4965863;28;20113;-75
2022/09/01 03:24:02;;;;;;;27.35;24.50;;;16.60;85.10;;;15.23;100.00;96219.34;4966193;28;20042;-73
2022/09/01 03:26:28;;;;;;;28.05;25.15;;;16.50;85.10;;;15.24;100.00;96227.06;4986772;28;20140;-74
2022/09/01 03:28:54;;;;;;;29.10;24.90;;;16.50;85.20;;;15.26;100.00;96218.91;4983303;28;20047;-74
2022/09/01 03:31:20;;;;;;;26.60;23.67;;;16.50;85.10;;;15.24;100.00;96221.78;4983524;28;20193;-74
2022/09/01 03:33:46;;;;;;;27.20;24.30;;;16.50;84.90;;;15.22;100.00;96210.59;4979744;28;20034;-74
2022/09/01 03:36:17;;;;;;;28.02;24.15;;;16.50;84.60;;;15.23;100.00;96217.50;4983677;28;20038;-73
2022/09/01 03:38:47;;;;;;;26.90;23.80;;;16.50;84.70;;;15.21;100.00;96211.63;4959444;28;20054;-74
2022/09/01 03:41:14;;;;;;;24.85;22.33;;;16.50;84.60;;;15.21;100.00;96210.81;4974797;28;20065;-73
2022/09/01 03:43:41;;;;;;;27.00;23.92;;;16.50;84.40;;;15.20;100.00;96207.34;4957178;28;20034;-73
2022/09/01 03:46:09;;;;;;;30.25;22.95;;;16.50;84.30;;;15.17;100.00;96212.25;4972462;28;20519;-73
2022/09/01 03:48:35;;;;;;;26.45;23.60;;;16.50;84.30;;;15.15;100.00;96211.63;4988749;28;20200;-74
2022/09/01 03:51:01;;;;;;;26.50;22.27;;;16.50;84.30;;;15.13;100.00;96214.50;4988098;28;20038;-74
2022/09/01 03:53:28;;;;;;;25.73;22.35;;;16.40;84.40;;;15.11;100.00;96207.78;4987257;28;20454;-74
2022/09/01 03:55:56;;;;;;;24.90;22.30;;;16.40;84.30;;;15.11;100.00;96203.31;4997937;28;20502;-74
2022/09/01 03:58:22;;;;;;;26.13;23.33;;;16.40;84.40;;;15.11;100.00;96203.31;4982204;28;20042;-74
2022/09/01 04:00:54;;;;;;;25.88;23.23;;;16.40;84.30;;;15.09;100.00;96205.38;4989047;28;20050;-74
2022/09/01 04:03:23;;;;;;;26.48;23.02;;;16.30;84.30;;;15.09;100.00;96202.72;4992544;28;20064;-74
2022/09/01 04:05:50;;;;;;;25.75;22.27;;;16.30;84.30;;;15.06;100.00;96199.69;4992378;28;20038;-74
2022/09/01 04:08:17;;;;;;;28.05;24.52;;;16.30;84.40;;;15.04;100.00;96205.19;5008027;28;20041;-73
2022/09/01 04:10:52;;;;;;;26.10;22.73;;;16.30;84.30;;;15.01;100.00;96197.69;4980009;28;20096;-74
2022/09/01 04:13:25;;;;;;;25.58;22.98;;;16.30;84.40;;;14.99;100.00;96197.91;4968487;28;20121;-73
2022/09/01 04:15:50;;;;;;;28.42;24.50;;;16.30;84.40;;;14.96;100.00;96194.88;4976646;28;20118;-74
2022/09/01 04:18:20;;;;;;;28.45;25.05;;;16.20;84.60;;;14.94;100.00;96195.09;4965287;28;20038;-74
2022/09/01 04:20:51;;;;;;;29.90;25.65;;;16.10;84.60;;;14.91;100.00;96192.03;4984558;28;20042;-73
2022/09/01 04:23:25;;;;;;;27.42;24.50;;;16.20;84.80;;;14.87;100.00;96189.00;4986621;28;20042;-74
2022/09/01 04:26:13;;;;;;;28.00;25.05;;;16.10;84.80;;;14.86;100.00;96197.16;4987241;28;20120;-74
2022/09/01 04:28:44;;;;;;;27.60;24.08;;;16.10;84.80;;;14.83;100.00;96192.28;4973581;28;20031;-74
2022/09/01 04:31:17;;;;;;;30.60;25.67;;;16.10;84.90;;;14.82;100.00;96201.25;4981817;28;20066;-73
2022/09/01 04:33:45;;;;;;;29.27;26.15;;;16.10;85.00;;;14.79;100.00;96199.06;4968772;28;20081;-74
2022/09/01 04:36:22;;;;;;;28.83;25.92;;;16.10;85.00;;;14.79;100.00;96196.41;4965915;28;20030;-73
2022/09/01 04:38:53;;;;;;;30.55;27.35;;;16.10;85.10;;;14.79;100.00;96207.00;4949171;28;20045;-79
2022/09/01 04:41:20;;;;;;;30.10;26.83;;;16.10;85.20;;;14.76;100.00;96197.63;4968126;28;20497;-79
2022/09/01 04:43:47;;;;;;;29.55;26.45;;;16.00;85.20;;;14.75;100.00;96200.50;4970321;28;20060;-69
2022/09/01 04:46:17;;;;;;;31.70;28.30;;;16.00;85.40;;;14.74;100.00;96197.03;4981955;28;20122;-68
2022/09/01 04:48:44;;;;;;;29.25;26.02;;;16.00;85.40;;;14.73;100.00;96197.25;4984824;28;20114;-67
2022/09/01 04:51:14;;;;;;;30.67;27.42;;;16.00;85.50;;;14.70;100.00;96201.94;4969315;28;20472;-66
2022/09/01 04:53:41;;;;;;;29.58;26.27;;;16.00;85.60;;;14.69;100.00;96205.59;4986975;28;20510;-68
2022/09/01 04:56:08;;;;;;;29.30;25.85;;;16.00;85.50;;;14.69;100.00;96196.84;4959280;28;20038;-66
2022/09/01 04:58:35;;;;;;;31.83;26.98;;;16.00;85.50;;;14.70;100.00;96204.56;4966959;28;20031;-69
2022/09/01 05:01:02;;;;;;;28.92;25.90;;;16.00;85.50;;;14.69;100.00;96202.94;4988252;28;20545;-74
2022/09/01 05:03:30;;;;;;;29.60;26.40;;;16.00;85.40;;;14.70;100.00;96204.56;4983662;28;20039;-72
2022/09/01 05:05:59;;;;;;;26.65;23.80;;;16.00;85.20;;;14.70;100.00;96198.47;4984946;28;20074;-74
2022/09/01 05:08:24;;;;;;;28.67;25.60;;;16.10;85.20;;;14.67;100.00;96199.69;5003011;28;20101;-74
2022/09/01 05:10:54;;;;;;;31.17;24.73;;;16.00;85.00;;;14.67;100.00;96202.34;4969734;28;20511;-74
2022/09/01 05:13:22;;;;;;;26.90;24.10;;;16.00;85.10;;;14.70;100.00;96199.28;4970553;28;20502;-74
2022/09/01 05:16:00;;;;;;;27.85;24.85;;;16.10;85.10;;;14.74;100.00;96206.81;4972375;28;20054;-74
2022/09/01 05:18:26;;;;;;;26.45;23.75;;;16.10;85.20;;;14.75;100.00;96203.16;4963731;28;20038;-74
2022/09/01 05:20:52;;;;;;;28.20;25.25;;;16.10;85.20;;;14.76;100.00;96202.94;4964030;28;20050;-74
2022/09/01 05:23:18;;;;;;;26.98;24.17;;;16.20;85.20;;;14.80;100.00;96208.63;4985944;28;20089;-74
2022/09/01 05:25:48;;;;;;;29.83;24.27;;;16.20;85.30;;;14.82;100.00;96212.66;4983243;28;20138;-74
2022/09/01 05:28:17;;;;;;;27.15;24.38;;;16.30;85.10;;;14.85;100.00;96208.78;4956236;28;20101;-73
2022/09/01 05:30:44;;;;;;;26.27;22.77;;;16.30;85.10;;;14.88;100.00;96216.28;4971016;28;20088;-74
2022/09/01 05:33:11;;;;;;;23.33;20.92;;;16.40;84.90;;;14.92;100.00;96214.84;4951695;28;20519;-73
2022/09/01 05:35:39;;;;;;;24.30;21.50;;;16.40;84.80;;;14.97;100.00;96213.19;4963878;28;20487;-74
2022/09/01 05:38:09;;;;;;;24.38;21.92;;;16.40;84.80;;;15.01;100.00;96210.94;4942556;28;20090;-74
2022/09/01 05:40:39;;;;;;;22.48;19.02;;;16.50;84.60;;;15.06;100.00;96207.63;4951429;28;20073;-74
2022/09/01 05:43:12;;;;;;;23.40;19.40;;;16.60;84.30;;;15.12;100.00;96199.63;4987365;28;20132;-74
2022/09/01 05:45:42;;;;;;;21.75;19.48;;;16.60;84.10;;;15.17;100.00;96204.31;4969068;28;20043;-76
2022/09/01 05:48:21;;;;;;;20.92;18.83;;;16.70;83.70;;;15.21;100.00;96201.00;4985482;28;20038;-74
2022/09/01 05:50:48;;;;;;;22.20;19.48;;;16.70;83.30;;;15.25;100.00;96202.19;4974207;28;20062;-72
2022/09/01 05:53:17;;;;;;;21.75;19.50;;;16.80;83.30;;;15.31;100.00;96196.03;4987402;28;20125;-74
2022/09/01 05:55:43;;;;;;;23.60;19.63;;;16.90;83.40;;;15.37;100.00;96188.22;4982950;28;20042;-75
2022/09/01 05:58:13;;;;;;;21.02;18.90;;;17.00;82.90;;;15.42;100.00;96194.53;4937108;28;20042;-74
2022/09/01 06:00:42;;;;;;;21.90;19.70;;;17.00;82.80;;;15.48;100.00;96195.50;4965041;28;20454;-75
2022/09/01 06:03:09;;;;;;;21.20;19.08;;;17.10;82.70;;;15.55;100.00;96198.88;4950670;28;20081;-74
2022/09/01 06:05:35;;;;;;;26.73;21.15;;;17.10;82.30;;;15.60;100.00;96193.78;4951333;28;20097;-74
2022/09/01 06:08:04;;;;;;;22.50;20.13;;;17.20;81.90;;;15.66;100.00;96198.22;4986946;28;20039;-74
2022/09/01 06:10:31;;;;;;;23.00;19.98;;;17.30;82.10;;;15.72;100.00;96200.00;4958248;28;20050;-74
2022/09/01 06:13:00;;;;;;;22.55;20.20;;;17.40;81.70;;;15.77;100.00;96199.34;4948286;28;20031;-75
2022/09/01 06:15:28;;;;;;;23.17;20.75;;;17.50;81.70;;;15.86;100.00;96208.66;4953330;28;20041;-74
2022/09/01 06:17:54;;;;;;;22.23;20.02;;;17.60;81.60;;;15.92;100.00;96202.47;4970069;28;20038;-76
2022/09/01 06:20:21;;;;;;;22.50;20.20;;;17.60;81.40;;;15.99;100.00;96202.38;4965907;28;20041;-74
2022/09/01 06:22:47;;;;;;;23.55;21.08;;;17.60;81.40;;;16.06;100.00;96206.59;4980513;28;20030;-75
2022/09/01 06:25:17;;;;;;;22.98;20.58;;;17.80;81.40;;;16.12;100.00;96213.69;4983945;28;20153;-77
2022/09/01 06:27:43;;;;;;;25.77;21.25;;;17.70;81.00;;;16.18;100.00;96211.97;4984852;28;20077;-78
2022/09/01 06:30:16;;;;;;;23.50;21.02;;;17.90;80.70;;;16.25;100.00;96204.75;4962742;28;20062;-75
2022/09/01 06:32:43;;;;;;;22.77;19.65;;;18.00;81.20;;;16.27;100.00;96205.34;4975600;28;20093;-64
2022/09/01 06:35:14;;;;;;;22.27;20.08;;;17.90;79.80;;;16.32;100.00;96202.03;4986644;28;20045;-64
2022/09/01 06:37:42;;;;;;;22.17;19.88;;;18.00;79.80;;;16.38;100.00;96212.56;4979741;28;20093;-65
2022/09/01 06:40:15;;;;;;;22.45;20.23;;;18.10;79.70;;;16.43;100.00;96210.06;4980687;28;20041;-65
2022/09/01 06:42:49;;;;;;;20.77;18.67;;;18.10;79.70;;;16.48;100.00;96215.50;4984542;28;20034;-65
2022/09/01 06:45:16;;;;;;;22.15;19.63;;;18.10;79.40;;;16.56;100.00;96218.91;4981606;28;20092;-66
2022/09/01 06:47:43;;;;;;;21.52;19.33;;;18.30;79.00;;;16.60;100.00;96225.38;4979020;28;20532;-67
2022/09/01 06:50:13;;;;;;;20.50;18.45;;;18.30;79.40;;;16.63;100.00;96224.94;4981280;28;20200;-64
2022/09/01 06:52:41;;;;;;;20.75;18.55;;;18.20;79.40;;;16.65;100.00;96228.16;4985910;28;20041;-65
2022/09/01 06:55:09;;;;;;;21.35;18.23;;;18.20;79.10;;;16.65;100.00;96236.13;4981545;28;20054;-67
2022/09/01 06:57:36;;;;;;;18.50;16.55;;;18.20;79.00;;;16.65;100.00;96231.63;4980466;28;20531;-65
2022/09/01 07:00:10;;;;;;;18.48;16.67;;;18.10;79.10;;;16.66;100.00;96237.75;4979883;28;20043;-66
2022/09/01 07:02:38;;;;;;;18.70;16.80;;;18.10;79.00;;;16.66;100.00;96235.09;4978075;28;20054;-74
2022/09/01 07:05:06;;;;;;;18.75;16.75;;;18.10;78.40;;;16.64;100.00;96240.66;4984194;28;20706;-68
2022/09/01 07:07:33;;;;;;;18.42;16.52;;;18.10;78.30;;;16.62;100.00;96239.25;4985729;28;20031;-69
2022/09/01 07:09:59;;;;;;;16.02;14.38;;;18.10;77.90;;;16.62;100.00;96240.06;4983737;28;20168;-69
2022/09/01 07:12:24;;;;;;;17.30;15.50;;;18.10;78.00;;;16.63;100.00;96246.19;4985190;28;20467;-69
2022/09/01 07:14:51;;;;;;;17.20;15.50;;;18.10;78.00;;;16.62;100.00;96247.22;4983132;28;20187;-68
2022/09/01 07:17:18;;;;;;;18.73;15.60;;;18.10;78.00;;;16.61;100.00;96249.06;4984862;28;20030;-69
2022/09/01 07:19:44;;;;;;;17.08;15.27;;;18.10;78.00;;;16.62;100.00;96245.38;4985160;28;20034;-69
2022/09/01 07:22:09;;;;;;;17.92;16.08;;;18.10;78.20;;;16.67;100.00;96252.69;4984545;28;20120;-69
2022/09/01 07:24:35;;;;;;;19.20;17.02;;;18.20;77.60;;;16.71;100.00;96245.91;4985619;28;20038;-69
2022/09/01 07:27:01;;;;;;;18.83;14.80;;;18.30;77.30;;;16.75;100.00;96263.03;4981855;28;20041;-68
2022/09/01 07:29:27;;;;;;;17.08;15.35;;;18.40;77.20;;;16.79;100.00;96251.72;4982992;28;20058;-69
2022/09/01 07:31:54;;;;;;;17.35;15.18;;;18.50;77.40;;;16.82;100.00;96255.78;4986049;28;20042;-69
2022/09/01 07:34:20;;;;;;;15.57;14.00;;;18.60;76.00;;;16.88;100.00;96257.53;4985084;28;20054;-70
2022/09/01 07:36:46;;;;;;;16.95;15.15;;;18.70;76.40;;;16.94;100.00;96253.97;4982849;28;20058;-69
2022/09/01 07:39:12;;;;;;;14.38;12.75;;;18.70;75.50;;;17.05;100.00;96255.88;4984764;28;20041;-70
2022/09/01 07:41:40;;;;;;;15.07;13.48;;;18.90;75.00;;;17.13;100.00;96254.75;4988948;28;20026;-69
2022/09/01 07:44:09;;;;;;;14.45;13.05;;;19.00;74.20;;;17.18;100.00;96260.19;4989171;28;20046;-69
2022/09/01 07:46:34;;;;;;;13.60;12.20;;;19.00;74.40;;;17.21;100.00;96264.25;4984527;28;20045;-69
2022/09/01 07:49:01;;;;;;;14.10;12.45;;;19.00;73.50;;;17.30;100.00;96263.69;4985120;28;20039;-69
2022/09/01 07:51:27;;;;;;;12.20;11.00;;;19.10;72.60;;;17.35;100.00;96261.16;4989471;28;20077;-69
2022/09/01 07:53:53;;;;;;;12.50;11.30;;;19.20;72.90;;;17.44;100.00;96267.00;4986083;28;20047;-69
2022/09/01 07:56:21;;;;;;;13.50;11.68;;;19.20;73.30;;;17.45;100.00;96272.06;4990665;28;20073;-69
2022/09/01 07:58:47;;;;;;;12.45;11.25;;;19.00;71.90;;;17.47;100.00;96271.84;4987601;28;20061;-68
2022/09/01 08:01:19;;;;;;;13.38;11.30;;;19.10;72.10;;;17.54;100.00;96269.88;4983759;28;20038;-69
2022/09/01 08:03:51;;;;;;;12.38;10.93;;;19.50;71.90;;;17.69;100.00;96275.63;4989217;28;20104;-69
2022/09/01 08:06:19;;;;;;;13.57;11.90;;;19.70;71.80;;;17.75;100.00;96277.34;4989266;28;20034;-69
2022/09/01 08:08:47;;;;;;;12.13;10.93;;;19.80;70.00;;;17.92;100.00;96287.34;4987696;28;20037;-69
2022/09/01 08:11:23;;;;;;;12.60;11.30;;;20.10;69.60;;;18.14;100.00;96275.06;4988854;28;20724;-69
2022/09/01 08:13:49;;;;;;;11.65;10.43;;;20.50;68.60;;;18.30;100.00;96277.00;4986484;28;20701;-69
2022/09/01 08:16:15;;;;;;;11.85;10.73;;;20.60;67.50;;;18.46;100.00;96282.69;4988722;28;20053;-69
2022/09/01 08:18:42;;;;;;;11.57;10.40;;;20.80;66.20;;;18.59;100.00;96288.56;4988035;28;20034;-70
2022/09/01 08:21:09;;;;;;;10.20;9.20;;;20.90;65.70;;;18.72;100.00;96286.72;4988347;28;20508;-69
2022/09/01 08:23:36;;;;;;;11.20;9.98;;;21.00;66.10;;;18.84;100.00;96285.66;4988746;28;20076;-69
2022/09/01 08:26:07;;;;;;;10.32;9.27;;;21.10;65.20;;;19.00;100.00;96296.59;4986336;28;20042;-74
2022/09/01 08:28:33;;;;;;;9.18;8.27;;;21.20;65.20;;;19.06;100.00;96298.34;4989824;28;20085;-74
2022/09/01 08:30:59;;;;;;;8.77;7.72;;;21.10;63.00;;;19.08;100.00;96298.91;4986911;28;20034;-75
2022/09/01 08:33:25;;;;;;;10.93;8.73;;;21.10;63.90;;;19.15;98.59;96304.91;4990261;28;20105;-71
2022/09/01 08:35:51;;;;;;;9.55;8.20;;;21.20;62.70;;;19.18;98.77;96304.41;4987553;28;20050;-72
2022/09/01 08:38:17;;;;;;;9.13;7.97;;;21.20;63.60;;;19.25;99.13;96302.44;4988281;28;20042;-72
2022/09/01 08:40:50;;;;;;;8.70;7.35;;;21.20;63.20;;;19.33;94.89;96299.38;4988631;28;20072;-72
2022/09/01 08:43:40;;;;;;;9.95;7.30;;;21.40;62.30;;;19.38;94.57;96307.47;4983460;28;20043;-72
2022/09/01 08:46:29;;;;;;;8.25;7.40;;;21.50;62.40;;;19.43;92.12;96304.88;4985494;28;20158;-73
2022/09/01 08:48:57;;;;;;;11.50;8.30;;;21.50;61.80;;;19.47;94.70;96310.56;4982733;28;20030;-72
2022/09/01 08:51:35;;;;;;;8.52;7.63;;;21.60;61.00;;;19.56;91.65;96306.50;4987257;28;20061;-72
2022/09/01 08:54:23;;;;;;;9.07;7.10;;;21.70;60.90;;;19.65;92.40;96304.22;4986816;28;20038;-73
2022/09/01 08:56:55;;;;;;;8.40;7.60;;;21.80;60.90;;;19.75;93.23;96309.75;4956652;28;20042;-73
2022/09/01 08:59:21;;;;;;;9.40;7.93;;;22.10;60.90;;;19.88;94.11;96302.22;5001858;28;20113;-72
2022/09/01 09:02:17;;;;;;;9.45;7.18;;;22.30;60.20;;;20.12;89.36;96297.53;4986939;28;20109;-72
2022/09/01 09:05:00;;;;;;;7.55;6.85;;;22.70;58.30;;;20.34;91.58;96294.09;4984940;28;20104;-72
2022/09/01 09:08:03;;;;;;;7.32;6.22;;;23.10;57.70;;;20.73;87.21;96300.28;4987409;28;20030;-73
2022/09/01 09:10:42;;;;;;;7.15;5.60;;;23.60;56.70;;;20.94;86.37;96304.00;4980265;28;20034;-72
2022/09/01 09:13:37;;;;;;;5.18;4.68;;;23.70;54.40;;;21.30;83.36;96298.06;4963692;28;20042;-72
2022/09/01 09:16:12;;;;;;;4.95;3.97;;;24.30;53.80;;;21.56;82.85;96295.63;4977834;28;20058;-72
2022/09/01 09:18:56;;;;;;;5.43;4.93;;;24.60;51.90;;;21.88;84.70;96304.47;4955808;28;20027;-72
2022/09/01 09:21:38;;;;;;;7.78;4.60;;;25.10;51.60;;;22.23;76.49;96295.94;4985792;28;20085;-73
2022/09/01 09:24:45;;;;;;;5.00;3.65;;;25.50;47.60;;;22.71;75.27;96285.22;4982121;28;20129;-72
2022/09/01 09:27:21;;;;;;;4.53;3.30;;;26.10;47.20;;;23.21;74.18;96290.81;4998851;28;20037;-72
2022/09/01 09:29:55;;;;;;;12.60;4.18;;;26.40;46.30;;;23.55;72.43;96287.69;4996766;28;20125;-72
2022/09/01 09:32:22;;;;;;;6.15;3.40;;;26.70;45.40;;;23.90;74.95;96283.41;4983466;28;20031;-72
2022/09/01 09:34:47;;;;;;;6.68;3.25;;;27.20;43.10;;;24.39;73.54;96284.47;4985490;28;20359;-72
2022/09/01 09:37:28;;;;;;;3.22;2.75;;;27.90;42.80;;;24.95;65.45;96273.56;4967203;28;20054;-73
2022/09/01 09:40:13;;;;;;;3.30;3.00;;;28.60;41.80;;;25.15;64.04;96279.97;4988153;28;20027;-72
2022/09/01 09:43:01;;;;;;;5.10;3.35;;;28.00;41.80;;;25.10;68.71;96271.88;4983747;28;20042;-72
2022/09/01 09:45:38;;;;;;;3.85;3.03;;;27.70;42.70;;;25.10;64.64;96277.28;4980002;28;20154;-71
2022/09/01 09:48:09;;;;;;;6.78;3.20;;;27.90;42.80;;;25.43;65.64;96279.25;4985490;28;20149;-72
2022/09/01 09:50:39;;;;;;;4.60;3.70;;;28.50;42.70;;;25.62;67.59;96272.13;4981959;28;20106;-71
2022/09/01 09:53:25;;;;;;;7.47;3.65;;;28.80;41.50;;;25.86;61.49;96274.16;4983218;28;20052;-71
2022/09/01 09:55:55;;;;;;;5.78;4.15;;;28.70;41.20;;;25.87;61.52;96271.16;4984784;28;20046;-71
2022/09/01 09:58:26;;;;;;;4.03;3.25;;;28.70;40.30;;;25.79;64.55;96279.03;4988351;28;20601;-71
2022/09/01 10:01:14;;;;;;;4.00;3.60;;;28.20;42.10;;;25.88;61.43;96264.69;4995541;28;20043;-72
2022/09/01 10:03:52;;;;;;;4.60;3.63;;;28.90;41.10;;;26.07;62.87;96262.09;5002092;28;20409;-72
2022/09/01 10:06:41;;;;;;;6.78;3.58;;;29.20;42.50;;;26.58;59.92;96258.13;4979225;28;20048;-72
2022/09/01 10:09:21;;;;;;;4.53;3.58;;;30.20;39.30;;;26.71;59.16;96257.44;4969451;28;20046;-71
2022/09/01 10:11:49;;;;;;;;;;;29.90;38.80;;;26.63;57.91;96256.16;4983121;28;20053;-72
2022/09/01 10:14:21;;;;;;;4.65;3.70;;;29.50;39.10;;;26.48;61.67;96259.84;4998818;28;19925;-72
2022/09/01 10:16:49;;;;;;;5.18;4.15;;;28.70;41.60;;;26.17;63.38;96270.09;4985269;28;20037;-72
2022/09/01 10:19:15;;;;;;;4.50;3.40;;;28.10;42.10;;;25.86;63.71;96268.75;5012364;28;20062;-70